Time;durP1;ratioP1;P1;durP2;ratioP2;P2;SDS_P1;SDS_P2;PMS_P1;PMS_P2;Temp;Humidity;BMP_temperature;BMP_pressure;BME280_temperature;BME280_humidity;BME280_pressure;Samples;Min_cycle;Max_cycle;Signal;HPM_P1;HPM_P2
2022/10/12 00:01:04;;;;;;;5.05;3.05;;;8.20;99.90;;;;;;5051823;28;20447;-79
2022/10/12 00:03:30;;;;;;;5.15;3.80;;;8.20;99.90;;;;;;5052845;28;20517;-79
2022/10/12 00:06:01;;;;;;;8.50;4.32;;;8.20;99.90;;;;;;5053011;28;20052;-80
2022/10/12 00:08:27;;;;;;;6.43;3.55;;;8.20;99.90;;;;;;5052466;28;20133;-79
2022/10/12 00:10:52;;;;;;;5.88;2.88;;;8.10;99.90;;;;;;5052870;28;20091;-79
2022/10/12 00:13:18;;;;;;;6.45;3.55;;;8.10;99.90;;;;;;5052913;28;20044;-79
2022/10/12 00:15:44;;;;;;;6.90;3.50;;;8.10;99.90;;;;;;5053052;28;20508;-79
2022/10/12 00:18:10;;;;;;;4.68;3.85;;;8.10;99.90;;;;;;5053047;28;20455;-79
2022/10/12 00:20:35;;;;;;;4.68;3.45;;;8.10;99.90;;;;;;5052251;28;20372;-80
2022/10/12 00:23:01;;;;;;;6.90;3.90;;;8.00;99.90;;;;;;5052571;28;20055;-79
2022/10/12 00:25:27;;;;;;;5.93;3.28;;;8.00;99.90;;;;;;5052624;28;20059;-80
2022/10/12 00:27:52;;;;;;;8.88;4.00;;;8.00;99.90;;;;;;5052633;28;20045;-79
2022/10/12 00:30:18;;;;;;;5.68;3.60;;;8.00;99.90;;;;;;5052541;28;20076;-79
2022/10/12 00:32:44;;;;;;;4.90;3.45;;;8.00;99.90;;;;;;5052440;28;20072;-79
2022/10/12 00:35:10;;;;;;;7.93;3.85;;;8.00;99.90;;;;;;5052564;28;20550;-79
2022/10/12 00:37:36;;;;;;;5.13;4.20;;;8.00;99.90;;;;;;5052891;28;20045;-80
2022/10/12 00:40:02;;;;;;;5.38;3.63;;;8.00;99.90;;;;;;5052122;28;20410;-80
2022/10/12 00:42:27;;;;;;;5.70;3.50;;;8.00;99.90;;;;;;5051471;28;20411;-80
2022/10/12 00:44:53;;;;;;;4.90;3.03;;;7.90;99.90;;;;;;5052384;28;20102;-79
2022/10/12 00:47:29;;;;;;;6.88;3.80;;;7.90;99.90;;;;;;5052516;28;20099;-80
2022/10/12 00:49:57;;;;;;;4.03;3.05;;;8.00;99.90;;;;;;5052865;28;20045;-79
2022/10/12 00:52:27;;;;;;;5.38;3.22;;;8.00;99.90;;;;;;5052811;28;20071;-79
2022/10/12 00:54:54;;;;;;;3.95;3.65;;;8.00;99.90;;;;;;5052445;28;20049;-79
2022/10/12 00:57:21;;;;;;;5.10;3.83;;;7.90;99.90;;;;;;5051878;28;20437;-79
2022/10/12 00:59:55;;;;;;;5.47;3.75;;;7.90;99.90;;;;;;5052479;28;20111;-79
2022/10/12 01:02:22;;;;;;;7.68;3.45;;;7.90;99.90;;;;;;5051354;28;20577;-81
2022/10/12 01:04:48;;;;;;;7.45;3.97;;;7.80;99.90;;;;;;5052174;28;20088;-80
2022/10/12 01:07:14;;;;;;;7.63;3.90;;;7.90;99.90;;;;;;5052614;28;20044;-79
2022/10/12 01:09:40;;;;;;;5.60;3.60;;;7.80;99.90;;;;;;5051815;28;20128;-79
2022/10/12 01:12:06;;;;;;;4.25;3.85;;;7.80;99.90;;;;;;5051952;28;20045;-81
2022/10/12 01:14:33;;;;;;;5.57;3.10;;;7.70;99.90;;;;;;5052062;28;20091;-80
2022/10/12 01:17:23;;;;;;;6.40;2.95;;;7.60;99.90;;;;;;5052613;28;20064;-79
2022/10/12 01:20:07;;;;;;;5.28;3.42;;;7.70;99.90;;;;;;5052068;28;20056;-80
2022/10/12 01:22:43;;;;;;;3.70;3.40;;;7.60;99.90;;;;;;5052030;28;20124;-79
2022/10/12 01:25:46;;;;;;;5.78;2.88;;;7.60;99.90;;;;;;5052151;28;20046;-80
2022/10/12 01:28:35;;;;;;;6.85;4.03;;;7.60;99.90;;;;;;5052179;28;20041;-78
2022/10/12 01:31:18;;;;;;;5.05;2.67;;;7.60;99.90;;;;;;5052216;28;20463;-79
2022/10/12 01:33:56;;;;;;;3.83;3.00;;;7.60;99.90;;;;;;5052539;28;20045;-79
2022/10/12 01:36:31;;;;;;;6.93;3.97;;;7.60;99.90;;;;;;5052466;28;20529;-79
2022/10/12 01:39:11;;;;;;;4.25;3.10;;;7.50;99.90;;;;;;5052082;28;20041;-79
2022/10/12 01:41:45;;;;;;;6.57;3.15;;;7.50;99.90;;;;;;5052199;28;20045;-78
2022/10/12 01:44:11;;;;;;;4.57;2.70;;;7.50;99.90;;;;;;5052254;28;20060;-79
2022/10/12 01:46:42;;;;;;;5.72;3.17;;;7.40;99.90;;;;;;5051972;28;20046;-79
2022/10/12 01:49:09;;;;;;;3.10;2.05;;;7.40;99.90;;;;;;5051912;28;20056;-79
2022/10/12 01:52:12;;;;;;;4.30;2.78;;;6.90;99.90;;;;;;5051752;28;20048;-79
2022/10/12 01:55:21;;;;;;;2.63;2.15;;;7.20;99.90;;;;;;5051738;28;20075;-79
2022/10/12 01:57:58;;;;;;;3.45;2.70;;;7.20;99.90;;;;;;4990168;28;20515;-79
2022/10/12 02:00:24;;;;;;;3.47;2.60;;;7.20;99.90;;;;;;4990100;28;20053;-79
2022/10/12 02:03:02;;;;;;;4.15;2.63;;;7.20;99.90;;;;;;5025776;28;20057;-79
2022/10/12 02:05:44;;;;;;;4.03;2.47;;;7.20;99.90;;;;;;5051372;28;20047;-79
2022/10/12 02:08:16;;;;;;;3.47;2.45;;;7.20;99.90;;;;;;5051670;28;20351;-79
2022/10/12 02:10:46;;;;;;;4.32;2.50;;;7.30;99.90;;;;;;5051900;28;20140;-79
2022/10/12 02:13:14;;;;;;;9.77;3.53;;;7.30;99.90;;;;;;5052371;28;20049;-79
2022/10/12 02:15:41;;;;;;;4.40;2.92;;;7.30;99.90;;;;;;5055106;28;20045;-79
2022/10/12 02:18:10;;;;;;;6.72;2.88;;;7.20;99.90;;;;;;5054856;28;20041;-80
2022/10/12 02:20:37;;;;;;;2.85;2.22;;;7.20;99.90;;;;;;5055097;28;20119;-79
2022/10/12 02:23:03;;;;;;;4.03;3.08;;;7.30;99.90;;;;;;5055452;28;20052;-79
2022/10/12 02:25:32;;;;;;;5.63;3.13;;;7.30;99.90;;;;;;5054728;28;20508;-80
2022/10/12 02:28:25;;;;;;;4.57;2.70;;;7.20;99.90;;;;;;5054918;28;20121;-79
2022/10/12 02:31:02;;;;;;;4.07;2.60;;;7.20;99.90;;;;;;5052580;28;20052;-79
2022/10/12 02:33:41;;;;;;;8.93;3.55;;;7.20;99.90;;;;;;5054707;28;20106;-80
2022/10/12 02:36:14;;;;;;;5.57;2.70;;;7.30;99.90;;;;;;5054701;28;20045;-79
2022/10/12 02:38:52;;;;;;;5.72;2.53;;;7.30;99.90;;;;;;5054612;28;20128;-79
2022/10/12 02:41:27;;;;;;;4.60;3.05;;;7.30;99.90;;;;;;5055057;28;20072;-78
2022/10/12 02:44:03;;;;;;;3.42;2.67;;;7.40;99.90;;;;;;5054587;28;20087;-79
2022/10/12 02:46:30;;;;;;;6.68;3.08;;;7.50;99.90;;;;;;5054895;28;20057;-79
2022/10/12 02:48:58;;;;;;;5.13;2.80;;;7.40;99.90;;;;;;5054725;28;20056;-79
2022/10/12 02:51:25;;;;;;;4.72;2.40;;;7.50;99.90;;;;;;5054540;28;20057;-79
2022/10/12 02:53:52;;;;;;;8.63;3.28;;;7.60;99.90;;;;;;5054565;28;20057;-80
2022/10/12 02:56:17;;;;;;;4.30;2.75;;;7.50;99.90;;;;;;5054214;28;20061;-81
2022/10/12 02:58:45;;;;;;;4.55;2.90;;;7.40;99.90;;;;;;5054517;28;20045;-79
2022/10/12 03:01:11;;;;;;;7.50;3.53;;;7.50;99.90;;;;;;5087377;28;20408;-79
2022/10/12 03:03:37;;;;;;;5.22;2.42;;;7.50;99.90;;;;;;5053706;28;20443;-78
2022/10/12 03:06:04;;;;;;;3.55;2.45;;;7.50;99.90;;;;;;5054554;28;20128;-81
2022/10/12 03:08:29;;;;;;;4.65;2.80;;;7.50;99.90;;;;;;5054002;28;20528;-79
2022/10/12 03:11:04;;;;;;;2.58;1.90;;;7.50;99.90;;;;;;5053979;28;20049;-80
2022/10/12 03:13:30;;;;;;;2.00;1.60;;;7.40;99.90;;;;;;5054657;28;20131;-80
2022/10/12 03:16:07;;;;;;;4.10;1.98;;;7.30;99.90;;;;;;5054223;28;20045;-80
2022/10/12 03:18:33;;;;;;;6.32;2.35;;;7.20;99.90;;;;;;5053911;28;20071;-79
2022/10/12 03:20:59;;;;;;;3.58;1.83;;;7.20;99.90;;;;;;5053902;28;20053;-79
2022/10/12 03:23:25;;;;;;;5.00;2.10;;;7.10;99.90;;;;;;5053595;28;20052;-79
2022/10/12 03:25:51;;;;;;;1.92;1.70;;;7.20;99.90;;;;;;5053560;28;20044;-80
2022/10/12 03:28:17;;;;;;;2.58;2.00;;;7.20;99.90;;;;;;5054129;28;20128;-78
2022/10/12 03:30:43;;;;;;;2.15;1.98;;;7.20;99.90;;;;;;5053619;28;20090;-78
2022/10/12 03:33:09;;;;;;;4.60;2.45;;;7.20;99.90;;;;;;5053610;28;20099;-78
2022/10/12 03:35:35;;;;;;;3.58;2.17;;;7.20;99.90;;;;;;5053595;28;20049;-78
2022/10/12 03:38:01;;;;;;;2.40;2.20;;;7.20;99.90;;;;;;5053719;28;20187;-79
2022/10/12 03:40:26;;;;;;;6.15;2.88;;;7.20;99.90;;;;;;5053819;28;20118;-79
2022/10/12 03:42:52;;;;;;;5.90;2.85;;;7.20;99.90;;;;;;5053615;28;20506;-80
2022/10/12 03:45:17;;;;;;;3.63;1.98;;;7.20;99.90;;;;;;5086103;28;20057;-78
2022/10/12 03:47:43;;;;;;;4.60;2.63;;;7.20;99.90;;;;;;5052704;28;20124;-81
2022/10/12 03:50:09;;;;;;;4.53;2.28;;;7.10;99.90;;;;;;5053632;28;20048;-80
2022/10/12 03:52:34;;;;;;;2.67;2.40;;;7.00;99.90;;;;;;5053600;28;20052;-79
2022/10/12 03:55:00;;;;;;;4.25;2.15;;;6.80;99.90;;;;;;5053743;28;20075;-79
2022/10/12 03:57:26;;;;;;;4.10;2.40;;;7.10;99.90;;;;;;5053455;28;20040;-79
2022/10/12 03:59:51;;;;;;;11.23;2.92;;;7.10;99.90;;;;;;5085520;28;20150;-79
2022/10/12 04:02:17;;;;;;;3.28;2.72;;;7.30;99.90;;;;;;5053831;28;20056;-78
2022/10/12 04:04:43;;;;;;;3.25;2.30;;;7.30;99.90;;;;;;5052899;28;20045;-79
2022/10/12 04:07:09;;;;;;;5.88;2.60;;;7.20;99.90;;;;;;5052915;28;20040;-79
2022/10/12 04:09:34;;;;;;;4.32;2.47;;;7.30;99.90;;;;;;5052837;28;20048;-79
2022/10/12 04:12:00;;;;;;;4.00;2.38;;;7.30;99.90;;;;;;5052881;28;20116;-79
2022/10/12 04:14:26;;;;;;;4.03;2.38;;;7.30;99.90;;;;;;5053187;28;20041;-79
2022/10/12 04:16:53;;;;;;;4.43;2.47;;;7.30;99.90;;;;;;5053230;28;20057;-79
2022/10/12 04:19:19;;;;;;;5.35;2.60;;;7.30;99.90;;;;;;5052408;28;20586;-80
2022/10/12 04:21:45;;;;;;;3.67;1.67;;;7.30;99.90;;;;;;5052724;28;20049;-80
2022/10/12 04:24:10;;;;;;;2.10;1.92;;;7.30;99.90;;;;;;5051786;28;20045;-80
2022/10/12 04:26:36;;;;;;;5.47;2.17;;;7.20;99.90;;;;;;5052582;28;20135;-79
2022/10/12 04:29:02;;;;;;;4.90;2.00;;;7.20;99.90;;;;;;5051560;28;20053;-80
2022/10/12 04:31:28;;;;;;;3.33;2.35;;;7.20;99.90;;;;;;5052490;28;20041;-80
2022/10/12 04:33:56;;;;;;;8.63;2.65;;;7.30;99.90;;;;;;5052420;28;20057;-80
2022/10/12 04:36:23;;;;;;;7.82;3.15;;;7.30;99.90;;;;;;5051599;28;20044;-80
2022/10/12 04:38:49;;;;;;;2.65;1.83;;;7.50;99.90;;;;;;5052301;28;20095;-80
2022/10/12 04:41:15;;;;;;;3.42;1.92;;;7.20;99.90;;;;;;5052056;28;20049;-80
2022/10/12 04:43:40;;;;;;;3.22;2.15;;;7.30;99.90;;;;;;5051615;28;20055;-80
2022/10/12 04:46:06;;;;;;;2.60;2.10;;;7.20;99.90;;;;;;5053056;28;20132;-79
2022/10/12 04:48:32;;;;;;;3.55;2.40;;;7.20;99.90;;;;;;5051979;28;20045;-79
2022/10/12 04:50:57;;;;;;;5.53;2.33;;;7.30;99.90;;;;;;5052251;28;20107;-79
2022/10/12 04:53:23;;;;;;;2.90;2.13;;;7.30;99.90;;;;;;5052227;28;20056;-79
2022/10/12 04:55:49;;;;;;;2.88;2.30;;;7.30;99.90;;;;;;5052259;28;20081;-79
2022/10/12 04:58:15;;;;;;;2.63;2.42;;;7.30;99.90;;;;;;5052188;28;20094;-79
2022/10/12 05:00:40;;;;;;;5.00;2.50;;;7.30;99.90;;;;;;5052285;28;20053;-79
2022/10/12 05:03:06;;;;;;;3.97;2.17;;;7.30;99.90;;;;;;5052586;28;20549;-80
2022/10/12 05:05:33;;;;;;;3.70;2.65;;;7.30;99.90;;;;;;5051008;28;20391;-79
2022/10/12 05:07:59;;;;;;;2.25;2.05;;;7.30;99.90;;;;;;5052073;28;20451;-80
2022/10/12 05:10:24;;;;;;;4.57;2.13;;;7.30;99.90;;;;;;5084799;28;20063;-80
2022/10/12 05:12:51;;;;;;;6.07;2.40;;;7.20;99.90;;;;;;5085175;28;20120;-80
2022/10/12 05:15:17;;;;;;;3.88;2.38;;;7.20;99.90;;;;;;5052352;28;20057;-80
2022/10/12 05:17:43;;;;;;;3.42;2.45;;;7.20;99.90;;;;;;5051768;28;20044;-79
2022/10/12 05:20:09;;;;;;;3.33;2.30;;;7.20;99.90;;;;;;5051913;28;20098;-79
2022/10/12 05:22:34;;;;;;;6.05;2.65;;;7.20;99.90;;;;;;5051772;28;20044;-79
2022/10/12 05:25:00;;;;;;;3.10;2.10;;;7.20;99.90;;;;;;5084333;28;20540;-79
2022/10/12 05:27:26;;;;;;;3.67;2.20;;;7.10;99.90;;;;;;5051469;28;20079;-79
2022/10/12 05:29:52;;;;;;;3.88;2.92;;;7.20;99.90;;;;;;5051436;28;20041;-79
2022/10/12 05:32:17;;;;;;;4.00;2.90;;;7.10;99.90;;;;;;5051502;28;20052;-79
2022/10/12 05:34:43;;;;;;;4.50;2.70;;;7.00;99.90;;;;;;5051565;28;20040;-79
2022/10/12 05:37:09;;;;;;;2.10;1.90;;;7.00;99.90;;;;;;5051521;28;20106;-80
2022/10/12 05:39:36;;;;;;;7.70;2.60;;;7.00;99.90;;;;;;5051901;28;20107;-79
2022/10/12 05:42:02;;;;;;;2.65;2.30;;;7.00;99.90;;;;;;5051343;28;20057;-80
2022/10/12 05:44:28;;;;;;;4.60;2.78;;;7.00;99.90;;;;;;5051503;28;20471;-80
2022/10/12 05:46:53;;;;;;;3.00;2.22;;;6.90;99.90;;;;;;5051929;28;20060;-79
2022/10/12 05:49:19;;;;;;;7.15;3.58;;;6.90;99.90;;;;;;5055576;28;20475;-79
2022/10/12 05:51:45;;;;;;;4.05;3.20;;;6.90;99.90;;;;;;5055303;28;20107;-80
2022/10/12 05:54:11;;;;;;;4.47;3.20;;;6.80;99.90;;;;;;5087320;28;20061;-80
2022/10/12 05:56:36;;;;;;;3.55;3.00;;;6.80;99.90;;;;;;5054937;28;20041;-79
2022/10/12 05:59:02;;;;;;;3.97;2.95;;;6.80;99.90;;;;;;5055487;28;20124;-80
2022/10/12 06:01:29;;;;;;;4.13;2.80;;;6.80;99.90;;;;;;5055340;28;20107;-80
2022/10/12 06:03:54;;;;;;;3.63;3.33;;;6.80;99.90;;;;;;5054909;28;20068;-80
2022/10/12 06:06:20;;;;;;;4.57;2.95;;;6.70;99.90;;;;;;5055157;28;20455;-80
2022/10/12 06:08:46;;;;;;;6.05;3.30;;;6.60;99.90;;;;;;5055094;28;20088;-80
2022/10/12 06:11:12;;;;;;;3.35;2.88;;;6.60;99.90;;;;;;5054918;28;20118;-80
2022/10/12 06:13:38;;;;;;;3.78;2.63;;;6.60;99.90;;;;;;5054887;28;20573;-79
2022/10/12 06:16:04;;;;;;;4.07;2.60;;;6.60;99.90;;;;;;5054981;28;20107;-79
2022/10/12 06:18:30;;;;;;;5.40;2.83;;;6.60;99.90;;;;;;5053546;28;20479;-79
2022/10/12 06:20:56;;;;;;;3.35;2.80;;;6.60;99.90;;;;;;5054788;28;20068;-79
2022/10/12 06:23:22;;;;;;;4.43;3.03;;;6.50;99.90;;;;;;5054605;28;20461;-79
2022/10/12 06:25:49;;;;;;;4.03;2.92;;;6.60;99.90;;;;;;5055200;28;20055;-80
2022/10/12 06:28:18;;;;;;;4.45;2.72;;;6.60;99.90;;;;;;5055002;28;20084;-79
2022/10/12 06:30:43;;;;;;;3.65;3.33;;;6.80;99.90;;;;;;5054938;28;20057;-79
2022/10/12 06:33:09;;;;;;;6.30;3.30;;;6.60;99.90;;;;;;5053602;28;20175;-83
2022/10/12 06:35:35;;;;;;;3.70;2.72;;;6.60;99.90;;;;;;5054846;28;20053;-79
2022/10/12 06:38:01;;;;;;;4.65;3.10;;;6.60;99.90;;;;;;5054540;28;20142;-79
2022/10/12 06:40:26;;;;;;;5.90;3.25;;;6.60;99.90;;;;;;5054503;28;20099;-79
2022/10/12 06:42:52;;;;;;;4.80;3.40;;;6.60;99.90;;;;;;5054519;28;20041;-79
2022/10/12 06:45:17;;;;;;;5.25;2.97;;;6.70;99.90;;;;;;5056104;28;20440;-79
2022/10/12 06:47:43;;;;;;;7.78;3.78;;;6.70;99.90;;;;;;5055824;28;20041;-79
2022/10/12 06:50:10;;;;;;;5.60;5.10;;;6.70;99.90;;;;;;5055146;28;20044;-80
2022/10/12 06:52:36;;;;;;;6.03;5.43;;;6.70;99.90;;;;;;5054660;28;20053;-79
2022/10/12 06:55:03;;;;;;;6.70;5.47;;;6.80;99.90;;;;;;5054594;28;20059;-78
2022/10/12 06:57:29;;;;;;;9.43;6.10;;;6.80;99.90;;;;;;5054809;28;20060;-79
2022/10/12 06:59:55;;;;;;;9.60;8.27;;;6.90;99.90;;;;;;5053314;28;20079;-79
2022/10/12 07:02:21;;;;;;;9.43;8.50;;;6.90;99.90;;;;;;5054349;28;20048;-80
2022/10/12 07:04:50;;;;;;;9.45;7.03;;;7.00;99.90;;;;;;5054452;28;20044;-78
2022/10/12 07:07:16;;;;;;;6.88;5.72;;;7.10;99.90;;;;;;5054290;28;20049;-77
2022/10/12 07:09:41;;;;;;;9.65;6.53;;;7.10;99.90;;;;;;5086992;28;20493;-78
2022/10/12 07:12:07;;;;;;;8.68;5.45;;;7.20;99.90;;;;;;5053849;28;20473;-80
2022/10/12 07:14:33;;;;;;;11.45;5.47;;;7.20;99.90;;;;;;5053955;28;20147;-79
2022/10/12 07:16:58;;;;;;;8.65;6.05;;;7.30;99.90;;;;;;5053545;28;20048;-78
2022/10/12 07:19:24;;;;;;;5.93;4.55;;;7.40;99.90;;;;;;5053849;28;20040;-80
2022/10/12 07:21:50;;;;;;;6.05;4.22;;;7.40;99.90;;;;;;5054149;28;20479;-81
2022/10/12 07:24:15;;;;;;;5.32;4.60;;;7.40;99.90;;;;;;5086214;28;20091;-78
2022/10/12 07:26:41;;;;;;;6.38;4.57;;;7.50;99.90;;;;;;5052856;28;20079;-79
2022/10/12 07:29:07;;;;;;;6.82;5.68;;;7.50;99.90;;;;;;5053742;28;20056;-78
2022/10/12 07:31:32;;;;;;;5.50;4.55;;;7.60;99.90;;;;;;5053759;28;20040;-78
2022/10/12 07:33:58;;;;;;;13.30;6.35;;;7.70;99.90;;;;;;5054079;28;20055;-79
2022/10/12 07:36:24;;;;;;;5.78;5.03;;;7.80;99.90;;;;;;5053848;28;20518;-78
2022/10/12 07:38:49;;;;;;;7.57;6.30;;;7.90;99.90;;;;;;5053373;28;20044;-81
2022/10/12 07:41:16;;;;;;;10.35;6.85;;;8.00;99.90;;;;;;5053859;28;20045;-78
2022/10/12 07:43:42;;;;;;;7.00;5.97;;;8.20;99.90;;;;;;5053964;28;20053;-78
2022/10/12 07:46:08;;;;;;;14.80;6.75;;;8.20;99.90;;;;;;5085970;28;20489;-78
2022/10/12 07:48:34;;;;;;;11.50;6.68;;;8.40;99.90;;;;;;5052924;28;20041;-79
2022/10/12 07:51:08;;;;;;;10.00;6.10;;;8.50;99.90;;;;;;5053409;28;20049;-81
2022/10/12 07:53:34;;;;;;;9.77;6.82;;;8.70;99.90;;;;;;5053077;28;20059;-80
2022/10/12 07:56:02;;;;;;;9.93;8.10;;;8.80;99.90;;;;;;5051819;28;20124;-79
2022/10/12 07:58:28;;;;;;;10.02;6.78;;;8.90;99.90;;;;;;5052905;28;20041;-78
2022/10/12 08:00:53;;;;;;;16.08;7.43;;;9.00;99.90;;;;;;5053445;28;20053;-80
2022/10/12 08:03:19;;;;;;;9.27;6.60;;;9.10;99.90;;;;;;5053021;28;20045;-79
2022/10/12 08:05:45;;;;;;;7.75;6.95;;;9.20;99.90;;;;;;5053215;28;20127;-81
2022/10/12 08:08:10;;;;;;;9.48;6.55;;;9.40;99.90;;;;;;5053191;28;20037;-80
2022/10/12 08:10:36;;;;;;;10.85;6.53;;;9.50;99.90;;;;;;5053633;28;20435;-81
2022/10/12 08:13:02;;;;;;;9.50;6.75;;;9.60;99.90;;;;;;5052752;28;20045;-79
2022/10/12 08:15:28;;;;;;;10.65;6.95;;;9.70;99.90;;;;;;5052927;28;20041;-80
2022/10/12 08:17:54;;;;;;;8.20;5.93;;;9.80;99.90;;;;;;5052690;28;20545;-79
2022/10/12 08:20:20;;;;;;;11.13;6.60;;;10.00;99.90;;;;;;5053057;28;20561;-79
2022/10/12 08:22:45;;;;;;;11.60;7.43;;;10.10;99.90;;;;;;5068123;28;20083;-79
2022/10/12 08:25:11;;;;;;;9.43;6.93;;;10.40;99.90;;;;;;5052602;28;20053;-80
2022/10/12 08:27:37;;;;;;;11.13;6.10;;;10.60;99.90;;;;;;5084983;28;20130;-79
2022/10/12 08:30:07;;;;;;;11.80;6.68;;;10.80;99.90;;;;;;5052652;28;20045;-80
2022/10/12 08:32:33;;;;;;;8.90;6.45;;;11.10;99.90;;;;;;5085198;28;20060;-79
2022/10/12 08:34:59;;;;;;;8.10;5.18;;;11.30;99.90;;;;;;5052430;28;20048;-80
2022/10/12 08:37:25;;;;;;;9.85;5.18;;;11.40;99.90;;;;;;5052533;28;20084;-80
2022/10/12 08:39:50;;;;;;;10.55;5.45;;;11.50;99.90;;;;;;5052086;28;20052;-79
2022/10/12 08:42:41;;;;;;;11.25;3.45;;;11.70;99.90;;;;;;5052497;28;20047;-79
2022/10/12 08:45:10;;;;;;;10.13;4.72;;;11.80;99.90;;;;;;5052541;28;20056;-80
2022/10/12 08:47:40;;;;;;;7.22;3.95;;;11.90;99.90;;;;;;5052116;28;20044;-80
2022/10/12 08:50:14;;;;;;;5.05;3.25;;;12.10;99.90;;;;;;5051765;28;20446;-79
2022/10/12 08:52:53;;;;;;;7.32;3.72;;;12.20;99.90;;;;;;5052065;28;20096;-79
2022/10/12 08:55:42;;;;;;;5.63;3.67;;;12.40;99.90;;;;;;5052076;28;20049;-80
2022/10/12 08:58:15;;;;;;;8.65;3.72;;;12.40;99.90;;;;;;5052257;28;20041;-80
2022/10/12 09:00:41;;;;;;;6.57;3.00;;;12.30;99.90;;;;;;5052029;28;20049;-80
2022/10/12 09:03:41;;;;;;;11.95;4.35;;;12.30;99.90;;;;;;5051022;28;20055;-79
2022/10/12 09:06:20;;;;;;;10.43;3.83;;;12.20;99.90;;;;;;5052614;28;20119;-79
2022/10/12 09:08:54;;;;;;;8.82;4.57;;;12.30;99.90;;;;;;5052043;28;20120;-79
2022/10/12 09:12:09;;;;;;;7.50;3.38;;;12.30;99.90;;;;;;5052032;28;20084;-79
2022/10/12 09:14:38;;;;;;;9.57;4.28;;;12.30;99.90;;;;;;5051482;28;20064;-79
2022/10/12 09:17:27;;;;;;;4.78;2.90;;;12.30;99.90;;;;;;5084043;28;20513;-83
2022/10/12 09:20:14;;;;;;;7.45;3.00;;;12.50;99.90;;;;;;5051882;28;20048;-79
2022/10/12 09:22:46;;;;;;;5.45;3.22;;;12.60;99.90;;;;;;5053923;28;20045;-79
2022/10/12 09:25:13;;;;;;;6.70;3.40;;;12.80;99.90;;;;;;5056106;28;20051;-79
2022/10/12 09:27:41;;;;;;;9.05;3.67;;;13.00;99.90;;;;;;5055868;28;20041;-77
2022/10/12 09:30:13;;;;;;;5.00;3.05;;;13.10;99.90;;;;;;5056284;28;20144;-79
2022/10/12 09:33:10;;;;;;;4.07;3.33;;;13.60;99.90;;;;;;5055887;28;20079;-79
2022/10/12 09:35:36;;;;;;;8.18;3.58;;;14.30;99.90;;;;;;5056235;28;20112;-79
2022/10/12 09:38:02;;;;;;;7.60;3.22;;;15.20;99.90;;;;;;5055837;28;20045;-80
2022/10/12 09:40:31;;;;;;;7.32;3.28;;;16.20;99.90;;;;;;5054629;28;20047;-80
2022/10/12 09:42:59;;;;;;;5.32;2.42;;;17.50;99.90;;;;;;5055595;28;20442;-79
2022/10/12 09:45:27;;;;;;;9.50;3.53;;;18.90;99.90;;;;;;5055759;28;20131;-78
2022/10/12 09:48:14;;;;;;;6.97;2.97;;;20.00;99.90;;;;;;5055180;28;20107;-78
2022/10/12 09:50:49;;;;;;;5.90;3.08;;;21.10;98.80;;;;;;5056214;28;20045;-80
2022/10/12 09:53:40;;;;;;;8.80;3.08;;;21.50;95.80;;;;;;5056427;28;20057;-79
2022/10/12 09:56:10;;;;;;;6.05;2.88;;;21.80;90.80;;;;;;5057337;28;20045;-74
2022/10/12 09:58:42;;;;;;;9.80;3.00;;;21.90;95.20;;;;;;5056493;28;20443;-79
2022/10/12 10:01:27;;;;;;;6.28;3.15;;;22.00;93.70;;;;;;5056097;28;20124;-78
2022/10/12 10:04:21;;;;;;;6.25;2.45;;;21.70;92.20;;;;;;5055739;28;20099;-79
2022/10/12 10:06:47;;;;;;;7.90;3.10;;;22.10;90.40;;;;;;5055479;28;20067;-80
2022/10/12 10:09:32;;;;;;;6.93;3.20;;;23.00;92.90;;;;;;5055200;28;20045;-79
2022/10/12 10:12:24;;;;;;;7.68;2.83;;;22.90;81.70;;;;;;5055173;28;20128;-79
2022/10/12 10:14:52;;;;;;;5.77;2.37;;;23.30;81.80;;;;;;5087561;28;20048;-80
2022/10/12 10:17:28;;;;;;;3.65;2.28;;;23.30;89.40;;;;;;5054919;28;20040;-79
2022/10/12 10:19:55;;;;;;;7.47;4.47;;;23.20;88.60;;;;;;5055050;28;20037;-79
2022/10/12 10:22:22;;;;;;;5.03;2.40;;;23.10;90.20;;;;;;5055208;28;20120;-79
2022/10/12 10:24:57;;;;;;;13.40;3.92;;;22.70;89.70;;;;;;5054944;28;20045;-79
2022/10/12 10:27:36;;;;;;;4.22;2.80;;;22.00;86.80;;;;;;5055072;28;20042;-80
2022/10/12 10:30:17;;;;;;;11.00;2.92;;;21.70;87.60;;;;;;5054915;28;20135;-79
2022/10/12 10:32:44;;;;;;;4.97;2.30;;;20.50;86.80;;;;;;5054866;28;20045;-79
2022/10/12 10:35:29;;;;;;;16.50;3.00;;;19.60;91.90;;;;;;5054026;28;20489;-79
2022/10/12 10:38:17;;;;;;;5.10;2.72;;;18.50;92.80;;;;;;5054506;28;20072;-79
2022/10/12 10:41:05;;;;;;;7.55;2.33;;;17.80;93.80;;;;;;5054852;28;20106;-79
2022/10/12 10:43:49;;;;;;;9.02;3.13;;;17.40;94.10;;;;;;5054867;28;20040;-80
2022/10/12 10:46:36;;;;;;;6.63;2.55;;;17.00;95.20;;;;;;5054255;28;20090;-78
2022/10/12 10:49:06;;;;;;;6.30;2.22;;;16.80;95.30;;;;;;5054464;28;20061;-79
2022/10/12 10:51:58;;;;;;;3.88;2.67;;;16.60;94.90;;;;;;5054712;28;20128;-78
2022/10/12 10:54:33;;;;;;;7.28;2.65;;;16.30;93.90;;;;;;5066837;28;20084;-84
2022/10/12 10:57:10;;;;;;;9.23;2.67;;;16.10;95.30;;;;;;5055427;28;20041;-79
2022/10/12 10:59:50;;;;;;;6.05;2.58;;;16.10;95.70;;;;;;5055075;28;20044;-81
2022/10/12 11:02:28;;;;;;;14.98;3.13;;;15.90;94.10;;;;;;5055991;28;20049;-78
2022/10/12 11:05:28;;;;;;;8.30;2.63;;;15.80;95.80;;;;;;5087350;28;20127;-78
2022/10/12 11:08:28;;;;;;;5.82;2.58;;;15.80;95.80;;;;;;5055646;28;20041;-78
2022/10/12 11:11:09;;;;;;;5.90;2.42;;;15.80;95.30;;;;;;5022248;28;20053;-80
2022/10/12 11:13:40;;;;;;;7.47;2.50;;;15.80;95.20;;;;;;5055317;28;20103;-79
2022/10/12 11:16:06;;;;;;;4.43;2.20;;;15.80;95.70;;;;;;5053287;28;20124;-80
2022/10/12 11:18:44;;;;;;;4.22;1.98;;;15.90;95.70;;;;;;5053765;28;20475;-79
2022/10/12 11:21:46;;;;;;;7.38;2.38;;;15.80;94.70;;;;;;5054007;28;20037;-81
2022/10/12 11:24:16;;;;;;;3.50;2.00;;;15.80;94.50;;;;;;5053737;28;20049;-79
2022/10/12 11:27:09;;;;;;;8.63;2.33;;;15.80;94.60;;;;;;5053797;28;20049;-81
2022/10/12 11:29:35;;;;;;;3.53;1.92;;;15.80;93.90;;;;;;5053097;28;20092;-80
2022/10/12 11:32:31;;;;;;;7.93;3.20;;;15.80;93.90;;;;;;5054243;28;20120;-79
2022/10/12 11:35:12;;;;;;;4.22;2.45;;;15.70;92.90;;;;;;5051785;28;20587;-79
2022/10/12 11:37:43;;;;;;;5.18;2.10;;;15.60;92.60;;;;;;5053967;28;20041;-78
2022/10/12 11:40:19;;;;;;;4.53;2.40;;;15.60;93.60;;;;;;5053694;28;20072;-79
2022/10/12 11:42:48;;;;;;;3.60;2.15;;;15.50;93.30;;;;;;5054091;28;20080;-79
2022/10/12 11:45:25;;;;;;;5.95;2.35;;;15.60;93.80;;;;;;5052961;28;20546;-80
2022/10/12 11:48:01;;;;;;;4.93;2.20;;;15.60;93.70;;;;;;5053189;28;20398;-78
2022/10/12 11:50:41;;;;;;;4.70;2.40;;;15.60;94.30;;;;;;5053062;28;20443;-79
2022/10/12 11:53:45;;;;;;;5.90;2.25;;;15.60;94.20;;;;;;5052916;28;20053;-78
2022/10/12 11:56:29;;;;;;;;;;;15.70;94.00;;;;;;5028930;28;20067;-79
2022/10/12 11:59:00;;;;;;;;;;;15.70;94.80;;;;;;5053475;28;19921;-79
2022/10/12 12:01:32;;;;;;;4.80;2.13;;;15.80;94.20;;;;;;5053629;28;19921;-79
2022/10/12 12:04:16;;;;;;;3.65;2.33;;;15.80;94.40;;;;;;5085174;28;20095;-78
2022/10/12 12:06:50;;;;;;;4.25;2.17;;;15.90;93.70;;;;;;5053471;28;20052;-78
2022/10/12 12:09:36;;;;;;;5.28;2.05;;;15.90;93.50;;;;;;5053141;28;20052;-78
2022/10/12 12:12:12;;;;;;;9.48;2.13;;;15.90;92.90;;;;;;5052803;28;20171;-79
2022/10/12 12:14:53;;;;;;;4.25;1.92;;;16.00;93.20;;;;;;5053011;28;20484;-78
2022/10/12 12:17:19;;;;;;;3.95;1.92;;;15.90;92.70;;;;;;5053178;28;20514;-78
2022/10/12 12:19:48;;;;;;;6.40;1.92;;;15.90;93.30;;;;;;5052767;28;20071;-79
2022/10/12 12:22:15;;;;;;;4.40;2.10;;;15.90;93.20;;;;;;5053084;28;20041;-78
2022/10/12 12:25:13;;;;;;;4.97;2.47;;;15.90;93.40;;;;;;5052348;28;20485;-79
2022/10/12 12:28:21;;;;;;;8.85;2.33;;;15.90;93.30;;;;;;5053106;28;20044;-78
2022/10/12 12:31:03;;;;;;;5.95;2.15;;;16.00;93.40;;;;;;5013876;28;20056;-79
2022/10/12 12:33:33;;;;;;;3.60;2.53;;;16.00;93.30;;;;;;5052739;28;20041;-80
2022/10/12 12:36:02;;;;;;;6.43;3.00;;;16.00;93.60;;;;;;5052489;28;20132;-79
2022/10/12 12:38:34;;;;;;;6.22;2.25;;;16.00;92.90;;;;;;5052388;28;20455;-78
2022/10/12 12:41:05;;;;;;;9.52;2.42;;;16.00;93.30;;;;;;5052446;28;20045;-78
2022/10/12 12:43:31;;;;;;;6.03;2.28;;;16.00;93.00;;;;;;5052989;28;20085;-79
2022/10/12 12:46:10;;;;;;;4.32;2.05;;;16.00;93.20;;;;;;5052395;28;20523;-78
2022/10/12 12:48:41;;;;;;;6.25;1.98;;;16.10;92.70;;;;;;5052356;28;20482;-78
2022/10/12 12:51:23;;;;;;;4.43;2.30;;;16.10;93.20;;;;;;5052865;28;20052;-79
2022/10/12 12:53:58;;;;;;;3.58;1.85;;;16.10;92.90;;;;;;5051256;28;20060;-79
2022/10/12 12:56:49;;;;;;;4.03;2.00;;;16.20;92.90;;;;;;5052884;28;20052;-78
2022/10/12 12:59:34;;;;;;;4.30;2.20;;;16.10;92.50;;;;;;5053769;28;20045;-78
2022/10/12 13:01:59;;;;;;;5.95;1.92;;;16.10;93.00;;;;;;5052686;28;20151;-78
2022/10/12 13:05:04;;;;;;;4.38;2.33;;;16.10;93.10;;;;;;5084268;28;20064;-78
2022/10/12 13:07:53;;;;;;;5.32;2.40;;;16.10;92.40;;;;;;5020456;28;20419;-80
2022/10/12 13:10:27;;;;;;;9.32;2.40;;;16.10;92.80;;;;;;5051442;28;20069;-77
2022/10/12 13:13:02;;;;;;;6.25;2.65;;;16.10;92.10;;;;;;5085390;28;20403;-80
2022/10/12 13:15:35;;;;;;;7.90;2.83;;;16.10;92.80;;;;;;5052611;28;20106;-77